createdAt,value
2023-05-23T00:01:14.781Z,5.10
2023-05-23T00:03:41.771Z,4.90
2023-05-23T00:06:09.038Z,5.60
2023-05-23T00:08:35.914Z,5.00
2023-05-23T00:11:02.825Z,5.33
2023-05-23T00:13:34.867Z,5.57
2023-05-23T00:16:02.685Z,5.27
2023-05-23T00:18:30.724Z,6.17
2023-05-23T00:20:59.102Z,5.20
2023-05-23T00:23:25.966Z,5.57
2023-05-23T00:25:55.445Z,5.67
2023-05-23T00:28:22.477Z,5.43
2023-05-23T00:30:51.563Z,5.90
2023-05-23T00:33:22.806Z,5.80
2023-05-23T00:35:49.647Z,5.67
2023-05-23T00:38:19.506Z,5.63
2023-05-23T00:40:46.613Z,6.57
2023-05-23T00:43:13.456Z,5.73
2023-05-23T00:45:40.723Z,5.60
2023-05-23T00:48:11.992Z,5.63
2023-05-23T00:50:38.798Z,5.33
2023-05-23T00:53:05.621Z,5.80
2023-05-23T00:55:32.643Z,5.67
2023-05-23T00:57:59.448Z,6.03
2023-05-23T01:00:29.103Z,5.67
2023-05-23T01:02:56.623Z,5.87
2023-05-23T01:05:25.029Z,5.83
2023-05-23T01:07:52.196Z,5.33
2023-05-23T01:10:24.404Z,5.80
2023-05-23T01:13:18.292Z,5.80
2023-05-23T01:16:13.715Z,5.30
2023-05-23T01:18:54.708Z,5.87
2023-05-23T01:21:24.254Z,5.53
2023-05-23T01:24:06.272Z,5.30
2023-05-23T01:27:03.794Z,5.80
2023-05-23T01:29:40.127Z,5.77
2023-05-23T01:32:11.653Z,5.83
2023-05-23T01:34:39.069Z,5.97
2023-05-23T01:37:10.559Z,6.00
2023-05-23T01:39:38.048Z,5.67
2023-05-23T01:42:05.020Z,5.87
2023-05-23T01:44:32.652Z,5.97
2023-05-23T01:47:01.584Z,5.93
2023-05-23T01:49:31.144Z,6.13
2023-05-23T01:51:59.542Z,6.00
2023-05-23T01:54:26.329Z,5.97
2023-05-23T01:56:53.167Z,5.90
2023-05-23T01:59:19.928Z,6.47
2023-05-23T02:01:46.767Z,5.30
2023-05-23T02:04:16.280Z,6.10
2023-05-23T02:06:43.201Z,5.80
2023-05-23T02:09:10.193Z,6.17
2023-05-23T02:11:37.057Z,6.10
2023-05-23T02:14:04.316Z,6.30
2023-05-23T02:16:31.179Z,5.77
2023-05-23T02:18:58.634Z,6.00
2023-05-23T02:21:27.809Z,6.03
2023-05-23T02:23:54.637Z,6.00
2023-05-23T02:26:21.705Z,6.00
2023-05-23T02:28:48.770Z,6.07
2023-05-23T02:31:17.321Z,5.77
2023-05-23T02:33:46.745Z,6.13
2023-05-23T02:36:13.563Z,5.97
2023-05-23T02:38:42.530Z,5.80
2023-05-23T02:41:11.709Z,5.50
2023-05-23T02:43:39.323Z,5.70
2023-05-23T02:46:06.112Z,5.70
2023-05-23T02:48:35.361Z,6.00
2023-05-23T02:51:07.384Z,5.87
2023-05-23T02:53:36.590Z,5.77
2023-05-23T02:56:03.414Z,5.80
2023-05-23T02:58:32.446Z,5.80
2023-05-23T03:01:01.885Z,6.23
2023-05-23T03:03:37.228Z,5.70
2023-05-23T03:06:06.422Z,6.10
2023-05-23T03:08:35.612Z,6.23
2023-05-23T03:11:02.484Z,5.97
2023-05-23T03:13:29.320Z,5.80
2023-05-23T03:15:56.136Z,5.73
2023-05-23T03:18:22.984Z,5.50
2023-05-23T03:20:54.412Z,5.50
2023-05-23T03:23:23.429Z,5.73
2023-05-23T03:25:50.383Z,6.07
2023-05-23T03:28:17.218Z,5.87
2023-05-23T03:30:44.098Z,5.83
2023-05-23T03:33:11.353Z,5.40
2023-05-23T03:35:41.424Z,5.50
2023-05-23T03:38:08.585Z,5.50
2023-05-23T03:40:35.496Z,5.87
2023-05-23T03:43:06.251Z,5.30
2023-05-23T03:45:33.279Z,6.07
2023-05-23T03:48:02.971Z,5.73
2023-05-23T03:50:32.101Z,5.77
2023-05-23T03:53:01.143Z,5.30
2023-05-23T03:55:28.037Z,5.17
2023-05-23T03:57:54.905Z,5.50
2023-05-23T04:00:21.756Z,5.40
2023-05-23T04:02:50.265Z,5.30
2023-05-23T04:05:17.240Z,5.27
2023-05-23T04:07:44.623Z,5.30
2023-05-23T04:10:13.866Z,4.80
2023-05-23T04:12:41.809Z,5.30
2023-05-23T04:15:09.229Z,5.63
2023-05-23T04:17:39.076Z,4.70
2023-05-23T04:20:10.118Z,4.97
2023-05-23T04:22:37.214Z,5.30
2023-05-23T04:25:04.368Z,5.00
2023-05-23T04:27:31.172Z,5.10
2023-05-23T04:29:58.369Z,4.90
2023-05-23T04:32:25.488Z,4.70
2023-05-23T04:34:52.569Z,4.90
2023-05-23T04:37:26.219Z,4.67
2023-05-23T04:39:53.384Z,4.90
2023-05-23T04:42:24.865Z,5.00
2023-05-23T04:44:52.831Z,4.80
2023-05-23T04:47:19.858Z,4.70
2023-05-23T04:49:46.738Z,4.87
2023-05-23T04:52:13.518Z,4.70
2023-05-23T04:54:44.775Z,4.90
2023-05-23T04:57:14.214Z,5.00
2023-05-23T04:59:43.422Z,5.17
2023-05-23T05:02:12.542Z,5.17
2023-05-23T05:04:39.379Z,4.83
2023-05-23T05:07:08.855Z,4.83
2023-05-23T05:09:36.510Z,4.73
2023-05-23T05:12:03.353Z,4.93
2023-05-23T05:14:30.938Z,4.33
2023-05-23T05:17:02.778Z,4.60
2023-05-23T05:19:30.022Z,5.50
2023-05-23T05:21:57.915Z,4.80
2023-05-23T05:24:27.884Z,4.77
2023-05-23T05:26:57.323Z,4.53
2023-05-23T05:29:28.930Z,4.50
2023-05-23T05:31:55.908Z,5.40
2023-05-23T05:34:22.961Z,4.30
2023-05-23T05:36:49.792Z,4.90
2023-05-23T05:39:17.006Z,4.03
2023-05-23T05:41:43.823Z,4.73
2023-05-23T05:44:10.691Z,4.43
2023-05-23T05:46:37.641Z,4.10
2023-05-23T05:49:04.508Z,4.60
2023-05-23T05:51:31.660Z,4.80
2023-05-23T05:53:58.615Z,4.03
2023-05-23T05:56:26.241Z,4.10
2023-05-23T05:58:53.117Z,4.40
2023-05-23T06:01:20.148Z,3.93
2023-05-23T06:03:47.189Z,4.00
2023-05-23T06:06:16.403Z,5.00
2023-05-23T06:08:43.445Z,4.33
2023-05-23T06:11:12.655Z,3.63
2023-05-23T06:13:41.942Z,4.00
2023-05-23T06:16:08.814Z,4.00
2023-05-23T06:18:35.666Z,3.97
2023-05-23T06:21:05.117Z,4.07
2023-05-23T06:23:32.016Z,3.57
2023-05-23T06:25:59.718Z,3.83
2023-05-23T06:28:28.897Z,4.20
2023-05-23T06:30:55.760Z,4.10
2023-05-23T06:33:24.770Z,3.80
2023-05-23T06:35:56.291Z,3.83
2023-05-23T06:38:23.122Z,4.10
2023-05-23T06:40:50.009Z,3.22
2023-05-23T06:43:16.888Z,3.85
2023-05-23T06:45:50.445Z,3.37
2023-05-23T06:48:17.335Z,3.60
2023-05-23T06:50:44.245Z,3.55
2023-05-23T06:53:11.212Z,3.40
2023-05-23T06:55:40.266Z,2.92
2023-05-23T06:58:07.106Z,3.40
2023-05-23T07:00:33.991Z,3.40
2023-05-23T07:03:03.458Z,3.40
2023-05-23T07:05:30.527Z,2.92
2023-05-23T07:07:57.345Z,3.17
2023-05-23T07:10:24.168Z,3.22
2023-05-23T07:12:51.224Z,3.50
2023-05-23T07:15:18.151Z,3.20
2023-05-23T07:17:45.019Z,2.95
2023-05-23T07:20:12.009Z,3.42
2023-05-23T07:22:38.809Z,3.25
2023-05-23T07:25:08.628Z,2.97
2023-05-23T07:27:37.601Z,3.17
2023-05-23T07:30:09.566Z,2.88
2023-05-23T07:32:36.852Z,2.75
2023-05-23T07:35:06.660Z,2.85
2023-05-23T07:37:35.660Z,3.38
2023-05-23T07:40:02.550Z,2.85
2023-05-23T07:42:29.369Z,2.90
2023-05-23T07:45:01.697Z,3.00
2023-05-23T07:47:30.994Z,3.13
2023-05-23T07:49:57.865Z,2.60
2023-05-23T07:52:24.694Z,2.70
2023-05-23T07:54:51.542Z,3.13
2023-05-23T07:57:21.005Z,2.35
2023-05-23T07:59:50.275Z,2.90
2023-05-23T08:02:17.375Z,3.15
2023-05-23T08:04:45.378Z,3.00
2023-05-23T08:07:12.925Z,3.08
2023-05-23T08:09:42.936Z,2.92
2023-05-23T08:12:09.896Z,3.00
2023-05-23T08:14:49.992Z,2.83
2023-05-23T08:17:21.128Z,2.88
2023-05-23T08:19:48.052Z,2.90
2023-05-23T08:22:14.851Z,2.75
2023-05-23T08:24:43.883Z,2.70
2023-05-23T08:27:13.110Z,2.63
2023-05-23T08:29:40.095Z,3.03
2023-05-23T08:32:09.244Z,3.33
2023-05-23T08:34:36.074Z,3.30
2023-05-23T08:37:03.196Z,2.90
2023-05-23T08:39:32.211Z,2.83
2023-05-23T08:41:59.061Z,2.63
2023-05-23T08:44:25.936Z,2.80
2023-05-23T08:46:53.496Z,3.03
2023-05-23T08:49:20.321Z,2.70
2023-05-23T08:51:47.177Z,2.80
2023-05-23T08:54:17.203Z,3.35
2023-05-23T08:56:44.032Z,2.83
2023-05-23T08:59:11.293Z,2.72
2023-05-23T09:01:41.498Z,3.10
2023-05-23T09:04:11.315Z,2.70
2023-05-23T09:06:38.189Z,2.40
2023-05-23T09:09:05.187Z,2.70
2023-05-23T09:11:36.107Z,2.20
2023-05-23T09:14:05.197Z,2.60
2023-05-23T09:16:37.549Z,2.70
2023-05-23T09:19:11.261Z,2.65
2023-05-23T09:21:38.188Z,2.45
2023-05-23T09:24:06.021Z,2.30
2023-05-23T09:26:32.947Z,2.60
2023-05-23T09:29:00.536Z,2.50
2023-05-23T09:31:32.858Z,2.58
2023-05-23T09:34:01.962Z,2.75
2023-05-23T09:36:30.450Z,2.90
2023-05-23T09:38:57.291Z,2.47
2023-05-23T09:41:25.199Z,2.70
2023-05-23T09:43:55.196Z,2.10
2023-05-23T09:46:22.384Z,2.15
2023-05-23T09:48:58.157Z,2.40
2023-05-23T09:51:25.077Z,2.53
2023-05-23T09:53:53.065Z,2.15
2023-05-23T09:56:20.033Z,2.28
2023-05-23T09:58:50.893Z,2.28
2023-05-23T10:01:19.908Z,2.90
2023-05-23T10:03:51.025Z,2.13
2023-05-23T10:06:57.790Z,2.63
2023-05-23T10:09:27.562Z,2.40
2023-05-23T10:12:02.637Z,2.83
2023-05-23T10:14:30.172Z,2.60
2023-05-23T10:17:08.936Z,2.33
2023-05-23T10:19:50.600Z,2.78
2023-05-23T10:22:17.432Z,2.40
2023-05-23T10:24:46.158Z,2.53
2023-05-23T10:27:13.001Z,2.45
2023-05-23T10:29:39.801Z,2.30
2023-05-23T10:32:09.166Z,2.78
2023-05-23T10:34:41.949Z,2.38
2023-05-23T10:37:12.377Z,2.45
2023-05-23T10:39:44.380Z,2.75
2023-05-23T10:42:26.412Z,2.40
2023-05-23T10:44:53.226Z,2.60
2023-05-23T10:47:27.889Z,2.22
2023-05-23T10:49:55.339Z,2.65
2023-05-23T10:52:24.030Z,2.60
2023-05-23T10:54:52.469Z,2.92
2023-05-23T10:57:20.733Z,2.70
2023-05-23T10:59:47.650Z,2.60
2023-05-23T11:02:16.286Z,2.72
2023-05-23T11:04:43.315Z,2.70
2023-05-23T11:07:34.438Z,2.83
2023-05-23T11:10:19.461Z,2.80
2023-05-23T11:12:50.871Z,2.70
2023-05-23T11:15:20.531Z,2.60
2023-05-23T11:17:55.160Z,2.50
2023-05-23T11:20:25.877Z,2.53
2023-05-23T11:22:59.075Z,2.25
2023-05-23T11:25:44.139Z,2.40
2023-05-23T11:28:14.261Z,2.70
2023-05-23T11:30:44.296Z,2.65
2023-05-23T11:33:17.090Z,2.67
2023-05-23T11:35:45.807Z,2.30
2023-05-23T11:38:12.830Z,2.70
2023-05-23T11:40:42.983Z,2.60
2023-05-23T11:43:16.864Z,2.50
2023-05-23T11:45:43.955Z,2.97
2023-05-23T11:48:15.029Z,2.80
2023-05-23T11:50:46.071Z,2.40
2023-05-23T11:53:20.828Z,2.53
2023-05-23T11:55:50.864Z,2.72
2023-05-23T11:58:17.685Z,2.22
2023-05-23T12:00:45.667Z,2.50
2023-05-23T12:03:12.918Z,2.45
2023-05-23T12:05:39.830Z,2.78
2023-05-23T12:08:06.793Z,2.47
2023-05-23T12:10:35.979Z,2.55
2023-05-23T12:13:02.842Z,2.60
2023-05-23T12:15:29.899Z,3.10
2023-05-23T12:17:57.088Z,2.65
2023-05-23T12:20:26.626Z,2.75
2023-05-23T12:22:57.003Z,2.70
2023-05-23T12:25:26.031Z,2.88
2023-05-23T12:27:56.370Z,2.65
2023-05-23T12:30:23.286Z,2.83
2023-05-23T12:32:52.919Z,2.75
2023-05-23T12:35:19.869Z,2.72
2023-05-23T12:37:48.932Z,2.80
2023-05-23T12:40:16.321Z,3.40
2023-05-23T12:42:54.913Z,2.72
2023-05-23T12:45:25.066Z,3.08
2023-05-23T12:47:54.184Z,2.90
2023-05-23T12:50:21.559Z,2.95
2023-05-23T12:52:48.501Z,2.85
2023-05-23T12:55:15.472Z,2.67
2023-05-23T12:57:42.300Z,2.75
2023-05-23T13:00:09.897Z,2.92
2023-05-23T13:02:36.778Z,2.85
2023-05-23T13:05:03.700Z,2.95
2023-05-23T13:07:30.550Z,2.72
2023-05-23T13:09:57.616Z,3.35
2023-05-23T13:12:24.570Z,2.70
2023-05-23T13:14:53.739Z,3.00
2023-05-23T13:17:20.942Z,2.83
2023-05-23T13:19:47.735Z,2.67
2023-05-23T13:22:14.619Z,2.70
2023-05-23T13:24:46.196Z,3.17
2023-05-23T13:27:13.141Z,2.90
2023-05-23T13:29:42.177Z,3.08
2023-05-23T13:32:11.269Z,2.90
2023-05-23T13:34:38.087Z,2.83
2023-05-23T13:37:05.722Z,2.90
2023-05-23T13:39:32.573Z,2.92
2023-05-23T13:42:01.864Z,2.58
2023-05-23T13:44:28.657Z,2.90
2023-05-23T13:46:55.746Z,2.83
2023-05-23T13:49:22.806Z,2.95
2023-05-23T13:51:50.230Z,3.05
2023-05-23T13:54:17.138Z,4.18
2023-05-23T13:56:44.306Z,2.80
2023-05-23T13:59:11.139Z,2.72
2023-05-23T14:01:38.005Z,3.00
2023-05-23T14:04:06.851Z,2.90
2023-05-23T14:06:35.153Z,2.85
2023-05-23T14:09:01.960Z,2.85
2023-05-23T14:11:29.307Z,3.20
2023-05-23T14:13:58.166Z,3.63
2023-05-23T14:16:25.297Z,2.92
2023-05-23T14:18:52.185Z,3.10
2023-05-23T14:21:19.027Z,3.25
2023-05-23T14:23:48.465Z,3.17
2023-05-23T14:26:15.286Z,3.15
2023-05-23T14:28:42.458Z,3.35
2023-05-23T14:31:11.778Z,3.42
2023-05-23T14:33:41.168Z,3.35
2023-05-23T14:36:13.538Z,3.00
2023-05-23T14:38:45.478Z,2.95
2023-05-23T14:41:15.420Z,3.00
2023-05-23T14:43:42.191Z,2.95
2023-05-23T14:46:11.418Z,3.33
2023-05-23T14:48:40.736Z,4.05
2023-05-23T14:51:07.646Z,3.70
2023-05-23T14:53:34.661Z,3.45
2023-05-23T14:56:03.896Z,3.70
2023-05-23T14:58:30.754Z,3.90
2023-05-23T15:00:57.554Z,3.55
2023-05-23T15:03:24.417Z,3.40
2023-05-23T15:05:53.765Z,3.28
2023-05-23T15:08:22.768Z,3.50
2023-05-23T15:10:49.628Z,3.70
2023-05-23T15:13:19.063Z,3.20
2023-05-23T15:15:46.499Z,3.60
2023-05-23T15:18:27.950Z,3.60
2023-05-23T15:21:05.074Z,3.83
2023-05-23T15:23:34.709Z,3.40
2023-05-23T15:26:01.693Z,3.90
2023-05-23T15:28:28.522Z,3.40
2023-05-23T15:30:57.157Z,3.25
2023-05-23T15:33:24.099Z,3.10
2023-05-23T15:35:53.949Z,3.55
2023-05-23T15:38:20.866Z,3.42
2023-05-23T15:40:49.083Z,3.25
2023-05-23T15:43:15.990Z,3.72
2023-05-23T15:45:42.902Z,3.60
2023-05-23T15:48:09.824Z,3.60
2023-05-23T15:50:36.775Z,3.92
2023-05-23T15:53:03.645Z,3.70
2023-05-23T15:55:31.080Z,4.03
2023-05-23T15:57:57.977Z,3.20
2023-05-23T16:00:24.870Z,3.53
2023-05-23T16:02:54.232Z,3.33
2023-05-23T16:05:23.603Z,3.38
2023-05-23T16:07:51.446Z,3.92
2023-05-23T16:10:18.405Z,3.60
2023-05-23T16:12:45.303Z,3.47
2023-05-23T16:15:12.136Z,3.45
2023-05-23T16:17:38.979Z,3.70
2023-05-23T16:20:08.555Z,3.53
2023-05-23T16:22:35.471Z,3.70
2023-05-23T16:25:06.145Z,3.50
2023-05-23T16:27:32.941Z,3.83
2023-05-23T16:29:59.811Z,3.50
2023-05-23T16:32:28.401Z,3.67
2023-05-23T16:34:57.418Z,3.90
2023-05-23T16:37:24.243Z,3.55
2023-05-23T16:39:51.079Z,3.88
2023-05-23T16:42:17.969Z,3.85
2023-05-23T16:44:45.549Z,3.80
2023-05-23T16:47:12.404Z,3.97
2023-05-23T16:49:39.213Z,3.60
2023-05-23T16:52:06.175Z,3.67
2023-05-23T16:54:32.977Z,4.00
2023-05-23T16:57:02.032Z,3.50
2023-05-23T16:59:29.930Z,4.07
2023-05-23T17:01:57.098Z,3.97
2023-05-23T17:04:26.406Z,4.40
2023-05-23T17:06:55.472Z,3.97
2023-05-23T17:09:22.429Z,3.65
2023-05-23T17:11:51.873Z,4.30
2023-05-23T17:14:18.757Z,3.90
2023-05-23T17:16:45.597Z,4.18
2023-05-23T17:19:12.455Z,4.43
2023-05-23T17:21:39.361Z,4.25
2023-05-23T17:24:06.304Z,3.75
2023-05-23T17:26:33.196Z,3.63
2023-05-23T17:29:00.117Z,4.10
2023-05-23T17:31:29.677Z,3.85
2023-05-23T17:33:57.546Z,3.72
2023-05-23T17:36:24.364Z,4.18
2023-05-23T17:38:53.758Z,4.07
2023-05-23T17:41:23.157Z,4.10
2023-05-23T17:43:50.331Z,4.20
2023-05-23T17:46:19.655Z,4.78
2023-05-23T17:48:48.224Z,4.32
2023-05-23T17:51:17.579Z,3.65
2023-05-23T17:53:44.464Z,3.60
2023-05-23T17:56:11.435Z,3.90
2023-05-23T17:58:39.705Z,4.13
2023-05-23T18:01:07.952Z,3.75
2023-05-23T18:03:38.281Z,4.18
2023-05-23T18:06:05.212Z,3.92
2023-05-23T18:08:32.052Z,4.38
2023-05-23T18:11:01.112Z,4.35
2023-05-23T18:13:27.926Z,4.30
2023-05-23T18:15:54.733Z,3.92
2023-05-23T18:18:21.727Z,4.00
2023-05-23T18:20:50.954Z,4.47
2023-05-23T18:23:17.915Z,3.60
2023-05-23T18:25:47.308Z,4.28
2023-05-23T18:28:14.160Z,3.88
2023-05-23T18:30:41.528Z,4.38
2023-05-23T18:33:08.567Z,4.13
2023-05-23T18:35:35.436Z,4.40
2023-05-23T18:38:02.292Z,4.20
2023-05-23T18:40:31.346Z,4.50
2023-05-23T18:42:58.212Z,4.88
2023-05-23T18:45:24.993Z,4.68
2023-05-23T18:47:51.918Z,4.53
2023-05-23T18:50:18.763Z,4.50
2023-05-23T18:52:45.588Z,5.35
2023-05-23T18:55:12.825Z,5.00
2023-05-23T18:57:41.880Z,4.30
2023-05-23T19:00:09.260Z,5.68
2023-05-23T19:02:36.277Z,4.80
2023-05-23T19:05:03.434Z,4.93
2023-05-23T19:07:32.665Z,4.88
2023-05-23T19:10:03.884Z,5.20
2023-05-23T19:12:35.454Z,4.90
2023-05-23T19:15:05.619Z,5.13
2023-05-23T19:17:35.315Z,4.80
2023-05-23T19:20:03.395Z,5.18
2023-05-23T19:22:47.030Z,5.00
2023-05-23T19:25:18.302Z,4.95
2023-05-23T19:27:45.100Z,5.22
2023-05-23T19:30:14.576Z,5.38
2023-05-23T19:32:43.920Z,5.65
2023-05-23T19:35:10.805Z,5.88
2023-05-23T19:37:37.642Z,5.78
2023-05-23T19:40:05.330Z,6.38
2023-05-23T19:42:32.192Z,5.10
2023-05-23T19:44:59.027Z,6.50
2023-05-23T19:47:27.404Z,5.78
2023-05-23T19:49:55.572Z,5.90
2023-05-23T19:52:24.660Z,5.72
2023-05-23T19:54:51.728Z,6.38
2023-05-23T19:57:18.575Z,5.95
2023-05-23T19:59:45.484Z,6.00
2023-05-23T20:02:12.277Z,6.68
2023-05-23T20:04:41.750Z,5.63
2023-05-23T20:07:08.697Z,5.80
2023-05-23T20:09:35.498Z,6.32
2023-05-23T20:12:02.963Z,6.28
2023-05-23T20:14:30.920Z,5.63
2023-05-23T20:16:57.860Z,6.80
2023-05-23T20:19:27.242Z,5.95
2023-05-23T20:21:54.199Z,6.18
2023-05-23T20:24:25.482Z,5.88
2023-05-23T20:26:52.278Z,6.38
2023-05-23T20:29:21.627Z,7.25
2023-05-23T20:31:48.539Z,6.70
2023-05-23T20:34:15.521Z,6.30
2023-05-23T20:36:44.753Z,5.97
2023-05-23T20:39:11.784Z,6.43
2023-05-23T20:41:42.021Z,6.47
2023-05-23T20:44:11.887Z,6.28
2023-05-23T20:46:41.424Z,6.65
2023-05-23T20:49:08.404Z,6.30
2023-05-23T20:51:37.252Z,6.35
2023-05-23T20:54:05.382Z,6.55
2023-05-23T20:56:35.054Z,6.75
2023-05-23T20:59:01.916Z,6.38
2023-05-23T21:01:31.072Z,6.95
2023-05-23T21:03:58.122Z,6.82
2023-05-23T21:06:27.207Z,6.85
2023-05-23T21:08:54.007Z,7.07
2023-05-23T21:11:21.123Z,6.93
2023-05-23T21:13:47.934Z,6.70
2023-05-23T21:16:15.065Z,6.40
2023-05-23T21:18:41.953Z,7.82
2023-05-23T21:21:11.096Z,7.20
2023-05-23T21:23:40.270Z,6.68
2023-05-23T21:26:07.137Z,7.07
2023-05-23T21:28:33.948Z,6.38
2023-05-23T21:31:03.331Z,7.47
2023-05-23T21:33:30.370Z,7.63
2023-05-23T21:35:58.735Z,8.52
2023-05-23T21:38:30.338Z,7.68
2023-05-23T21:40:57.143Z,7.50
2023-05-23T21:43:23.994Z,8.10
2023-05-23T21:45:50.887Z,8.13
2023-05-23T21:48:17.678Z,8.52
2023-05-23T21:50:44.612Z,7.90
2023-05-23T21:53:13.648Z,8.20
2023-05-23T21:55:40.496Z,7.90
2023-05-23T21:58:07.316Z,7.78
2023-05-23T22:00:34.141Z,7.82
2023-05-23T22:03:01.086Z,7.72
2023-05-23T22:05:30.532Z,7.38
2023-05-23T22:07:57.398Z,7.50
2023-05-23T22:10:25.567Z,7.07
2023-05-23T22:12:52.377Z,7.43
2023-05-23T22:15:19.172Z,7.20
2023-05-23T22:17:48.307Z,6.80
2023-05-23T22:20:16.654Z,7.53
2023-05-23T22:22:45.509Z,6.80
2023-05-23T22:25:12.388Z,7.05
2023-05-23T22:27:39.257Z,6.68
2023-05-23T22:30:09.182Z,6.95
2023-05-23T22:32:38.542Z,6.90
2023-05-23T22:35:05.882Z,7.20
2023-05-23T22:37:32.702Z,7.13
2023-05-23T22:39:59.557Z,7.10
2023-05-23T22:42:28.633Z,6.80
2023-05-23T22:44:55.417Z,6.90
2023-05-23T22:47:24.561Z,7.50
2023-05-23T22:49:56.503Z,6.75
2023-05-23T22:52:31.224Z,6.53
2023-05-23T22:55:00.346Z,6.95
2023-05-23T22:57:27.164Z,6.82
2023-05-23T22:59:53.960Z,7.35
2023-05-23T23:02:23.135Z,6.80
2023-05-23T23:04:50.017Z,7.60
2023-05-23T23:07:16.883Z,6.68
2023-05-23T23:09:43.731Z,7.25
2023-05-23T23:12:10.585Z,6.80
2023-05-23T23:14:37.383Z,7.45
2023-05-23T23:17:05.021Z,7.00
2023-05-23T23:19:35.283Z,7.50
2023-05-23T23:22:02.207Z,7.22
2023-05-23T23:24:28.994Z,7.38
2023-05-23T23:26:55.832Z,6.50
2023-05-23T23:29:22.835Z,6.97
2023-05-23T23:31:51.861Z,6.38
2023-05-23T23:34:18.772Z,7.10
2023-05-23T23:36:45.786Z,6.97
2023-05-23T23:39:12.541Z,6.53
2023-05-23T23:41:39.327Z,6.90
2023-05-23T23:44:06.181Z,6.60
2023-05-23T23:46:32.981Z,6.93
2023-05-23T23:48:59.819Z,5.47
2023-05-23T23:51:28.811Z,6.57
2023-05-23T23:53:56.518Z,6.50
2023-05-23T23:56:24.725Z,6.10
2023-05-23T23:58:51.685Z,6.47
